Time;durP1;ratioP1;P1;durP2;ratioP2;P2;SDS_P1;SDS_P2;PMS_P1;PMS_P2;Temp;Humidity;BMP_temperature;BMP_pressure;BME280_temperature;BME280_humidity;BME280_pressure;Samples;Min_cycle;Max_cycle;Signal;HPM_P1;HPM_P2
2022/03/04 00:02:14;;;;;;;20.98;14.20;;;4.60;99.90;;;;;;5035141;28;20045;-62
2022/03/04 00:04:39;;;;;;;24.33;13.95;;;4.60;99.90;;;;;;5034870;28;20029;-63
2022/03/04 00:07:05;;;;;;;21.50;14.10;;;4.60;99.90;;;;;;5034486;28;20645;-62
2022/03/04 00:09:31;;;;;;;25.30;15.00;;;4.70;99.90;;;;;;5036471;28;20033;-63
2022/03/04 00:11:57;;;;;;;22.65;14.30;;;4.70;99.90;;;;;;5036166;28;20118;-63
2022/03/04 00:14:27;;;;;;;22.02;14.77;;;4.50;99.90;;;;;;5034011;28;20100;-62
2022/03/04 00:16:53;;;;;;;21.67;13.68;;;4.50;99.90;;;;;;5037873;28;20030;-63
2022/03/04 00:19:19;;;;;;;25.52;14.40;;;4.40;99.90;;;;;;5040518;28;20040;-62
2022/03/04 00:21:50;;;;;;;21.90;14.43;;;4.40;99.90;;;;;;5039875;28;20032;-63
2022/03/04 00:24:17;;;;;;;23.73;14.27;;;4.40;99.90;;;;;;5043161;28;20546;-62
2022/03/04 00:26:44;;;;;;;22.02;14.70;;;;;;;;;;5040230;28;20029;-62
2022/03/04 00:29:10;;;;;;;21.15;14.43;;;4.10;99.90;;;;;;5047109;28;20025;-62
2022/03/04 00:31:37;;;;;;;22.98;15.25;;;4.10;99.90;;;;;;5043420;28;20410;-62
2022/03/04 00:34:06;;;;;;;22.98;14.45;;;4.10;99.90;;;;;;5041669;28;20128;-62
2022/03/04 00:36:33;;;;;;;21.08;13.30;;;4.10;99.90;;;;;;5040524;28;20375;-63
2022/03/04 00:38:58;;;;;;;21.60;14.50;;;4.00;99.90;;;;;;5033759;28;20029;-62
2022/03/04 00:41:24;;;;;;;24.70;14.55;;;4.00;99.90;;;;;;5039511;28;20020;-62
2022/03/04 00:43:51;;;;;;;23.25;14.95;;;3.80;99.90;;;;;;5046965;28;20159;-63
2022/03/04 00:46:18;;;;;;;22.80;14.35;;;3.80;99.90;;;;;;5037746;28;20033;-62
2022/03/04 00:48:44;;;;;;;22.30;15.02;;;3.90;99.90;;;;;;5038939;28;20033;-63
2022/03/04 00:51:11;;;;;;;23.98;15.48;;;3.90;99.90;;;;;;5043556;28;20035;-62
2022/03/04 00:53:37;;;;;;;26.10;16.02;;;3.80;99.90;;;;;;5044172;28;20946;-62
2022/03/04 00:56:03;;;;;;;25.98;17.02;;;3.60;99.90;;;;;;5038131;28;20063;-62
2022/03/04 00:58:29;;;;;;;26.80;16.58;;;3.60;99.90;;;;;;5037696;28;20063;-62
2022/03/04 01:00:54;;;;;;;27.70;16.50;;;3.60;99.90;;;;;;5041952;28;20425;-62
2022/03/04 01:03:20;;;;;;;28.73;16.92;;;3.60;99.90;;;;;;5040640;28;20059;-62
2022/03/04 01:05:46;;;;;;;28.58;17.42;;;3.40;99.90;;;;;;5040614;28;20025;-62
2022/03/04 01:08:12;;;;;;;26.63;15.88;;;;;;;;;;5039500;28;20504;-62
2022/03/04 01:10:38;;;;;;;27.67;15.98;;;3.10;99.90;;;;;;5040879;28;20539;-62
2022/03/04 01:13:04;;;;;;;26.85;17.05;;;3.30;99.90;;;;;;5042517;28;20028;-62
2022/03/04 01:15:30;;;;;;;28.55;16.52;;;3.20;99.90;;;;;;5044710;28;20173;-62
2022/03/04 01:17:55;;;;;;;29.58;16.75;;;3.30;99.90;;;;;;5041696;28;20029;-63
2022/03/04 01:20:21;;;;;;;28.17;17.33;;;3.30;99.90;;;;;;5042259;28;20025;-62
2022/03/04 01:22:47;;;;;;;32.58;17.02;;;3.10;99.90;;;;;;5042294;28;20029;-63
2022/03/04 01:25:13;;;;;;;27.70;16.35;;;3.10;99.90;;;;;;5038991;28;20032;-63
2022/03/04 01:27:39;;;;;;;26.08;16.48;;;3.00;99.90;;;;;;5040516;28;20744;-63
2022/03/04 01:30:06;;;;;;;25.90;16.60;;;3.00;99.90;;;;;;5042942;28;20678;-63
2022/03/04 01:32:32;;;;;;;27.73;17.30;;;3.10;99.90;;;;;;5037693;28;20454;-62
2022/03/04 01:34:58;;;;;;;26.23;15.65;;;3.30;99.90;;;;;;5036034;28;20062;-63
2022/03/04 01:37:23;;;;;;;26.98;16.58;;;3.30;99.90;;;;;;5043181;28;20025;-63
2022/03/04 01:39:50;;;;;;;24.40;16.05;;;3.20;99.90;;;;;;5034576;28;20044;-63
2022/03/04 01:42:15;;;;;;;28.45;16.15;;;3.10;99.90;;;;;;5041679;28;20162;-63
2022/03/04 01:44:41;;;;;;;26.50;16.60;;;3.00;99.90;;;;;;5041893;28;20041;-63
2022/03/04 01:47:07;;;;;;;29.80;17.23;;;3.00;99.90;;;;;;5041233;28;20547;-63
2022/03/04 01:49:33;;;;;;;25.42;15.73;;;3.10;99.90;;;;;;5042578;28;20052;-62
2022/03/04 01:51:59;;;;;;;27.30;16.35;;;3.10;99.90;;;;;;5040051;28;20040;-62
2022/03/04 01:54:25;;;;;;;24.05;15.68;;;2.90;99.90;;;;;;5037417;28;20029;-62
2022/03/04 01:56:51;;;;;;;29.65;15.43;;;2.90;99.90;;;;;;5047264;28;20036;-62
2022/03/04 01:59:18;;;;;;;25.05;15.68;;;2.90;99.90;;;;;;5037976;28;20021;-62
2022/03/04 02:01:45;;;;;;;25.75;16.95;;;;;;;;;;5043053;28;20033;-62
2022/03/04 02:04:10;;;;;;;28.65;16.92;;;2.80;99.90;;;;;;5038336;28;20086;-62
2022/03/04 02:06:36;;;;;;;25.05;15.40;;;2.50;99.90;;;;;;5048721;28;20029;-62
2022/03/04 02:09:03;;;;;;;28.15;15.85;;;2.40;99.90;;;;;;5036339;28;20787;-61
2022/03/04 02:11:28;;;;;;;24.42;16.08;;;2.30;99.90;;;;;;5037422;28;20017;-62
2022/03/04 02:13:54;;;;;;;29.05;16.70;;;2.10;99.90;;;;;;5036243;28;20485;-62
2022/03/04 02:16:26;;;;;;;29.38;16.85;;;2.00;99.90;;;;;;5035794;28;20044;-61
2022/03/04 02:18:52;;;;;;;27.65;16.30;;;2.00;99.90;;;;;;5036749;28;20186;-61
2022/03/04 02:21:22;;;;;;;25.20;16.33;;;2.00;99.90;;;;;;5035415;28;20071;-61
2022/03/04 02:23:48;;;;;;;27.98;16.27;;;1.90;99.90;;;;;;5037438;28;20400;-61
2022/03/04 02:26:14;;;;;;;27.02;16.25;;;2.00;99.90;;;;;;5029312;28;20179;-59
2022/03/04 02:28:40;;;;;;;27.55;16.75;;;1.80;99.90;;;;;;5042523;28;20474;-60
2022/03/04 02:31:05;;;;;;;24.88;15.52;;;1.80;99.90;;;;;;5039498;28;20048;-61
2022/03/04 02:33:32;;;;;;;27.60;15.70;;;;;;;;;;5042406;28;20104;-61
2022/03/04 02:35:58;;;;;;;23.67;15.85;;;1.60;99.90;;;;;;5036666;28;20068;-60
2022/03/04 02:38:23;;;;;;;25.45;16.23;;;1.60;99.90;;;;;;5024758;28;20486;-61
2022/03/04 02:40:49;;;;;;;25.10;16.75;;;1.40;99.90;;;;;;5036068;28;20021;-62
2022/03/04 02:43:15;;;;;;;25.50;15.82;;;1.50;99.90;;;;;;5040813;28;20052;-61
2022/03/04 02:45:41;;;;;;;27.73;15.85;;;1.40;99.90;;;;;;5037499;28;20032;-61
2022/03/04 02:48:06;;;;;;;25.85;15.77;;;1.40;99.90;;;;;;5033019;28;20096;-61
2022/03/04 02:50:32;;;;;;;24.20;16.08;;;1.50;99.90;;;;;;5038389;28;20036;-62
2022/03/04 02:52:58;;;;;;;27.67;15.88;;;1.40;99.90;;;;;;5036133;28;20035;-61
2022/03/04 02:55:23;;;;;;;25.70;15.93;;;1.50;99.90;;;;;;5038692;28;20021;-61
2022/03/04 02:57:49;;;;;;;25.70;16.60;;;1.40;99.90;;;;;;5039437;28;20028;-61
2022/03/04 03:00:16;;;;;;;25.67;15.50;;;1.40;99.90;;;;;;5036169;28;20393;-61
2022/03/04 03:02:43;;;;;;;29.20;16.52;;;1.40;99.90;;;;;;5040908;28;20422;-61
2022/03/04 03:05:09;;;;;;;25.55;16.45;;;1.30;99.90;;;;;;5034430;28;20165;-61
2022/03/04 03:07:35;;;;;;;28.63;17.20;;;1.40;99.90;;;;;;5031967;28;20033;-59
2022/03/04 03:10:02;;;;;;;26.63;15.95;;;1.40;99.90;;;;;;5036948;28;20064;-61
2022/03/04 03:12:28;;;;;;;31.77;17.50;;;1.60;99.90;;;;;;5030436;28;20040;-61
2022/03/04 03:14:53;;;;;;;27.52;16.20;;;1.90;99.90;;;;;;5043023;28;20039;-61
2022/03/04 03:17:19;;;;;;;27.88;16.08;;;1.90;99.90;;;;;;5039614;28;20032;-61
2022/03/04 03:19:44;;;;;;;26.35;15.40;;;1.90;99.90;;;;;;5038763;28;20030;-61
2022/03/04 03:22:10;;;;;;;27.45;16.45;;;2.00;99.90;;;;;;5033157;28;20036;-61
2022/03/04 03:24:36;;;;;;;25.45;16.10;;;2.00;99.90;;;;;;5035673;28;20025;-61
2022/03/04 03:27:02;;;;;;;26.63;16.85;;;1.90;99.90;;;;;;5041884;28;20087;-61
2022/03/04 03:29:27;;;;;;;26.20;16.00;;;1.70;99.90;;;;;;5035975;28;20119;-60
2022/03/04 03:31:53;;;;;;;22.88;15.02;;;1.60;99.90;;;;;;5035773;28;21097;-60
2022/03/04 03:34:19;;;;;;;27.50;17.35;;;1.70;99.90;;;;;;5028912;28;20032;-61
2022/03/04 03:36:44;;;;;;;29.58;17.95;;;1.80;99.90;;;;;;5039755;28;20159;-60
2022/03/04 03:39:10;;;;;;;29.25;17.50;;;1.60;99.90;;;;;;5038701;28;20036;-61
2022/03/04 03:41:36;;;;;;;31.05;17.67;;;1.70;99.90;;;;;;5034900;28;20026;-61
2022/03/04 03:44:02;;;;;;;28.42;18.02;;;1.60;99.90;;;;;;5033700;28;20069;-61
2022/03/04 03:46:28;;;;;;;31.52;17.13;;;1.70;99.90;;;;;;5041245;28;20033;-60
2022/03/04 03:48:54;;;;;;;32.72;18.75;;;1.50;99.90;;;;;;5039103;28;20025;-61
2022/03/04 03:51:19;;;;;;;34.88;18.05;;;1.50;99.90;;;;;;5039275;28;20060;-60
2022/03/04 03:53:45;;;;;;;32.90;18.33;;;1.40;99.90;;;;;;5039801;28;20029;-60
2022/03/04 03:56:11;;;;;;;39.13;19.58;;;1.50;99.90;;;;;;5037385;28;20033;-60
2022/03/04 03:58:36;;;;;;;32.58;19.33;;;1.50;99.90;;;;;;5035669;28;20021;-60
2022/03/04 04:01:02;;;;;;;35.83;19.77;;;1.40;99.90;;;;;;5039820;28;20086;-60
2022/03/04 04:03:28;;;;;;;35.17;18.90;;;;;;;;;;5034442;28;20037;-61
2022/03/04 04:05:54;;;;;;;37.78;20.20;;;1.40;99.90;;;;;;5034673;28;20066;-60
2022/03/04 04:08:20;;;;;;;34.20;19.95;;;1.60;99.90;;;;;;5031615;28;20053;-61
2022/03/04 04:10:45;;;;;;;33.70;19.52;;;1.70;99.90;;;;;;5038409;28;20080;-60
2022/03/04 04:13:11;;;;;;;30.17;18.40;;;1.80;99.90;;;;;;5038002;28;20025;-61
2022/03/04 04:15:37;;;;;;;36.70;19.80;;;2.00;99.90;;;;;;5038485;28;20021;-60
2022/03/04 04:18:03;;;;;;;34.58;19.17;;;2.10;99.90;;;;;;5035138;28;20504;-61
2022/03/04 04:20:29;;;;;;;30.77;18.70;;;1.80;99.90;;;;;;5034495;28;20032;-60
2022/03/04 04:22:54;;;;;;;30.80;18.70;;;1.60;99.90;;;;;;5040052;28;20492;-61
2022/03/04 04:25:20;;;;;;;35.33;20.23;;;1.50;99.90;;;;;;5039450;28;20087;-60
2022/03/04 04:27:46;;;;;;;34.97;19.77;;;1.50;99.90;;;;;;5040584;28;20062;-60
2022/03/04 04:30:11;;;;;;;31.63;19.10;;;1.50;99.90;;;;;;5036814;28;20419;-61
2022/03/04 04:32:37;;;;;;;30.48;19.27;;;1.70;99.90;;;;;;5038574;28;20025;-60
2022/03/04 04:35:03;;;;;;;32.58;19.92;;;1.70;99.90;;;;;;5029970;28;20028;-60
2022/03/04 04:37:29;;;;;;;32.70;19.63;;;1.60;99.90;;;;;;5040054;28;20032;-60
2022/03/04 04:39:54;;;;;;;35.42;20.10;;;1.50;99.90;;;;;;5040315;28;20021;-60
2022/03/04 04:42:20;;;;;;;33.92;19.88;;;1.40;99.90;;;;;;5038525;28;20031;-61
2022/03/04 04:44:46;;;;;;;34.38;20.00;;;1.60;99.90;;;;;;5036483;28;20459;-60
2022/03/04 04:47:12;;;;;;;33.95;19.17;;;1.70;99.90;;;;;;5037853;28;20543;-60
2022/03/04 04:49:38;;;;;;;39.15;19.50;;;1.50;99.90;;;;;;5035663;28;20821;-61
2022/03/04 04:52:08;;;;;;;35.00;19.75;;;1.60;99.90;;;;;;5037565;28;20016;-60
2022/03/04 04:54:35;;;;;;;34.17;19.75;;;1.40;99.90;;;;;;5038159;28;20032;-60
2022/03/04 04:57:01;;;;;;;31.83;19.75;;;1.40;99.90;;;;;;5040071;28;20064;-60
2022/03/04 04:59:26;;;;;;;32.35;19.95;;;1.10;99.90;;;;;;5036907;28;20029;-59
2022/03/04 05:01:52;;;;;;;40.75;19.88;;;1.00;99.90;;;;;;5035021;28;20024;-60
2022/03/04 05:04:18;;;;;;;33.20;20.30;;;1.00;99.90;;;;;;5037517;28;20029;-60
2022/03/04 05:06:43;;;;;;;35.25;20.25;;;1.00;99.90;;;;;;5040496;28;20036;-59
2022/03/04 05:09:09;;;;;;;33.47;20.10;;;0.90;99.90;;;;;;5041922;28;20370;-61
2022/03/04 05:11:35;;;;;;;36.10;20.33;;;0.80;99.90;;;;;;5039751;28;20058;-60
2022/03/04 05:14:01;;;;;;;36.10;20.92;;;0.80;99.90;;;;;;5040925;28;20110;-60
2022/03/04 05:16:26;;;;;;;35.47;19.33;;;0.70;99.90;;;;;;5040251;28;20025;-60
2022/03/04 05:18:52;;;;;;;33.03;20.05;;;0.70;99.90;;;;;;5041333;28;20031;-60
2022/03/04 05:21:18;;;;;;;36.03;20.75;;;0.90;99.90;;;;;;5041061;28;20063;-60
2022/03/04 05:23:59;;;;;;;37.83;21.83;;;1.10;99.90;;;;;;5041805;28;20020;-61
2022/03/04 05:26:44;;;;;;;37.75;20.63;;;1.10;99.90;;;;;;5040522;28;20029;-61
2022/03/04 05:29:12;;;;;;;33.00;19.23;;;1.20;99.90;;;;;;5043476;28;20033;-60
2022/03/04 05:31:39;;;;;;;33.58;19.02;;;1.20;99.90;;;;;;5040278;28;20021;-61
2022/03/04 05:34:06;;;;;;;31.50;19.38;;;1.10;99.90;;;;;;5038854;28;20512;-60
2022/03/04 05:36:32;;;;;;;35.72;19.30;;;1.10;99.90;;;;;;5039836;28;20526;-61
2022/03/04 05:38:59;;;;;;;34.00;19.80;;;1.20;99.90;;;;;;5039522;28;20480;-61
2022/03/04 05:41:25;;;;;;;34.83;19.27;;;1.20;99.90;;;;;;5034409;28;20060;-61
2022/03/04 05:43:50;;;;;;;32.78;18.67;;;1.20;99.90;;;;;;5039615;28;20056;-60
2022/03/04 05:46:17;;;;;;;30.60;19.05;;;1.20;99.90;;;;;;5034361;28;20448;-60
2022/03/04 05:48:43;;;;;;;29.48;18.52;;;1.10;99.90;;;;;;5043715;28;20025;-59
2022/03/04 05:51:09;;;;;;;28.98;17.85;;;1.20;99.90;;;;;;5040057;28;20108;-59
2022/03/04 05:53:36;;;;;;;36.97;19.52;;;1.20;99.90;;;;;;5036787;28;20052;-60
2022/03/04 05:56:03;;;;;;;28.90;18.17;;;1.10;99.90;;;;;;5040545;28;20715;-60
2022/03/04 05:58:29;;;;;;;30.35;17.80;;;1.10;99.90;;;;;;5035537;28;20021;-60
2022/03/04 06:00:55;;;;;;;29.88;17.70;;;1.10;99.90;;;;;;5035413;28;20074;-60
2022/03/04 06:03:20;;;;;;;30.73;18.08;;;1.10;99.90;;;;;;5041356;28;20025;-60
2022/03/04 06:05:46;;;;;;;32.65;18.77;;;0.90;99.90;;;;;;5036864;28;20061;-59
2022/03/04 06:08:12;;;;;;;32.58;18.17;;;0.90;99.90;;;;;;5034274;28;20036;-61
2022/03/04 06:10:37;;;;;;;31.67;18.27;;;0.80;99.90;;;;;;5034629;28;20048;-61
2022/03/04 06:13:03;;;;;;;30.42;18.02;;;0.80;99.90;;;;;;5035480;28;20036;-60
2022/03/04 06:15:28;;;;;;;30.92;17.58;;;0.90;99.90;;;;;;5039063;28;20071;-60
2022/03/04 06:17:54;;;;;;;33.15;17.92;;;0.70;99.90;;;;;;5035383;28;20033;-61
2022/03/04 06:20:20;;;;;;;28.92;17.88;;;0.60;99.90;;;;;;5035714;28;20033;-61
2022/03/04 06:22:46;;;;;;;32.95;17.42;;;0.70;99.90;;;;;;5034254;28;20037;-61
2022/03/04 06:25:14;;;;;;;29.38;18.10;;;0.70;99.90;;;;;;5035180;28;20111;-59
2022/03/04 06:28:00;;;;;;;30.33;17.42;;;0.80;99.90;;;;;;5035129;28;20036;-61
2022/03/04 06:30:28;;;;;;;30.42;18.02;;;0.70;99.90;;;;;;5035574;28;20562;-60
2022/03/04 06:33:30;;;;;;;28.73;17.35;;;0.60;99.90;;;;;;5036115;28;20017;-60
2022/03/04 06:35:42;;;;;;;31.77;18.30;;;0.60;99.90;;;;;;5036302;28;20139;-61
2022/03/04 06:38:08;;;;;;;27.45;17.63;;;0.50;99.90;;;;;;5036020;28;20658;-60
2022/03/04 06:40:34;;;;;;;34.60;19.75;;;0.60;99.90;;;;;;5035503;28;20017;-61
2022/03/04 06:43:00;;;;;;;38.97;21.13;;;0.50;99.90;;;;;;5034409;28;20027;-60
2022/03/04 06:45:25;;;;;;;33.35;19.20;;;0.40;99.90;;;;;;5035857;28;20688;-61
2022/03/04 06:47:51;;;;;;;34.42;18.10;;;0.40;99.90;;;;;;5034260;28;20040;-60
2022/03/04 06:50:17;;;;;;;33.15;19.23;;;0.40;99.90;;;;;;5034515;28;20048;-61
2022/03/04 06:52:43;;;;;;;32.35;18.58;;;0.60;99.90;;;;;;5034445;28;20123;-61
2022/03/04 06:55:10;;;;;;;29.77;18.23;;;0.50;99.90;;;;;;5034172;28;20479;-60
2022/03/04 06:57:36;;;;;;;35.72;20.33;;;0.50;99.90;;;;;;5034383;28;20041;-61
2022/03/04 07:00:07;;;;;;;32.25;18.77;;;0.60;99.90;;;;;;5033545;28;20385;-61
2022/03/04 07:02:34;;;;;;;37.88;21.52;;;0.80;99.90;;;;;;5033327;28;20031;-61
2022/03/04 07:05:02;;;;;;;38.78;21.25;;;1.10;99.90;;;;;;5035532;28;20428;-61
2022/03/04 07:07:27;;;;;;;49.75;25.67;;;1.20;99.90;;;;;;5038066;28;20047;-60
2022/03/04 07:09:53;;;;;;;47.70;25.75;;;1.40;99.90;;;;;;5033932;28;20059;-61
2022/03/04 07:12:18;;;;;;;41.40;24.60;;;1.40;99.90;;;;;;5044055;28;20444;-61
2022/03/04 07:14:44;;;;;;;39.47;22.00;;;1.60;99.90;;;;;;5038444;28;20421;-62
2022/03/04 07:17:09;;;;;;;38.55;21.58;;;1.70;99.90;;;;;;5036940;28;20095;-61
2022/03/04 07:19:35;;;;;;;38.08;20.85;;;1.70;99.90;;;;;;5034226;28;20040;-61
2022/03/04 07:22:00;;;;;;;37.50;20.95;;;1.70;99.90;;;;;;5030039;28;20095;-60
2022/03/04 07:24:26;;;;;;;36.00;21.40;;;1.80;99.90;;;;;;5031867;28;20025;-61
2022/03/04 07:26:51;;;;;;;38.33;20.60;;;2.10;99.90;;;;;;5033129;28;20051;-61
2022/03/04 07:29:17;;;;;;;37.90;20.95;;;2.10;99.90;;;;;;5042952;28;20113;-59
2022/03/04 07:31:42;;;;;;;33.83;20.30;;;2.10;99.90;;;;;;5039909;28;20029;-60
2022/03/04 07:34:08;;;;;;;34.58;19.73;;;2.20;99.90;;;;;;5029377;28;20035;-59
2022/03/04 07:36:34;;;;;;;35.90;19.38;;;2.30;99.90;;;;;;5037613;28;20598;-59
2022/03/04 07:38:59;;;;;;;36.05;19.67;;;2.30;99.90;;;;;;5029996;28;20021;-59
2022/03/04 07:41:25;;;;;;;32.75;18.52;;;2.40;99.90;;;;;;5033589;28;20021;-60
2022/03/04 07:43:51;;;;;;;33.70;19.55;;;2.50;99.90;;;;;;5032596;28;20095;-61
2022/03/04 07:46:17;;;;;;;37.38;19.42;;;2.60;99.90;;;;;;5030893;28;20042;-60
2022/03/04 07:48:43;;;;;;;36.45;19.98;;;2.60;99.90;;;;;;5032144;28;20075;-60
2022/03/04 07:51:09;;;;;;;32.40;19.60;;;2.60;99.90;;;;;;5042645;28;20484;-61
2022/03/04 07:53:34;;;;;;;35.78;18.65;;;2.70;99.90;;;;;;5036057;28;20552;-61
2022/03/04 07:56:00;;;;;;;34.00;20.27;;;2.80;99.90;;;;;;5039155;28;20017;-61
2022/03/04 07:58:25;;;;;;;31.67;19.30;;;2.90;99.90;;;;;;5036215;28;20319;-61
2022/03/04 08:00:51;;;;;;;33.38;19.85;;;2.90;99.90;;;;;;5034085;28;20485;-61
2022/03/04 08:03:16;;;;;;;33.97;19.75;;;3.10;99.90;;;;;;5038708;28;20025;-62
2022/03/04 08:05:42;;;;;;;29.83;17.92;;;3.10;99.90;;;;;;5036145;28;20055;-62
2022/03/04 08:08:07;;;;;;;30.80;18.75;;;3.20;99.90;;;;;;5035707;28;20048;-62
2022/03/04 08:10:33;;;;;;;32.55;18.80;;;3.10;99.90;;;;;;5033716;28;20035;-62
2022/03/04 08:12:59;;;;;;;31.58;18.48;;;3.20;99.90;;;;;;5034856;28;20028;-61
2022/03/04 08:15:24;;;;;;;35.67;18.13;;;3.30;99.90;;;;;;5037204;28;20021;-61
2022/03/04 08:17:50;;;;;;;39.40;19.70;;;3.40;99.90;;;;;;5041118;28;20032;-61
2022/03/04 08:20:16;;;;;;;33.05;19.55;;;3.60;99.90;;;;;;5034227;28;20287;-61
2022/03/04 08:22:42;;;;;;;33.08;19.50;;;3.70;99.90;;;;;;5035932;28;20503;-61
2022/03/04 08:25:08;;;;;;;26.58;16.02;;;3.80;99.90;;;;;;5027662;28;20102;-61
2022/03/04 08:27:41;;;;;;;24.20;14.10;;;3.90;99.90;;;;;;5025020;28;20083;-61
2022/03/04 08:30:09;;;;;;;26.25;14.88;;;3.90;99.90;;;;;;5030239;28;20619;-61
2022/03/04 08:32:35;;;;;;;29.95;15.55;;;4.20;99.90;;;;;;5033440;28;20112;-61
2022/03/04 08:35:02;;;;;;;23.23;14.18;;;4.30;99.90;;;;;;5037050;28;20124;-61
2022/03/04 08:37:27;;;;;;;28.25;15.55;;;4.40;99.90;;;;;;5031700;28;20770;-61
2022/03/04 08:39:53;;;;;;;22.15;14.70;;;5.50;99.90;;;;;;5039511;28;20119;-61
2022/03/04 08:42:19;;;;;;;30.73;15.90;;;4.50;99.90;;;;;;5031896;28;20049;-61
2022/03/04 08:44:45;;;;;;;31.77;15.57;;;4.50;99.90;;;;;;5041428;28;20404;-61
2022/03/04 08:47:10;;;;;;;25.48;15.45;;;4.50;99.90;;;;;;5033512;28;20061;-61
2022/03/04 08:49:36;;;;;;;30.50;17.13;;;4.60;99.90;;;;;;5037353;28;20040;-61
2022/03/04 08:52:02;;;;;;;26.50;15.50;;;4.70;99.90;;;;;;5033170;28;20099;-61
2022/03/04 08:54:27;;;;;;;27.50;16.30;;;4.70;99.90;;;;;;5031687;28;20053;-61
2022/03/04 08:56:53;;;;;;;27.17;15.77;;;4.80;99.90;;;;;;5034662;28;20253;-61
2022/03/04 08:59:19;;;;;;;31.73;17.08;;;4.80;99.90;;;;;;5035508;28;20030;-61
2022/03/04 09:01:44;;;;;;;28.13;17.80;;;4.90;99.90;;;;;;5035238;28;20082;-61
2022/03/04 09:04:14;;;;;;;28.90;17.20;;;4.90;99.90;;;;;;5036335;28;20029;-61
2022/03/04 09:06:40;;;;;;;28.55;17.30;;;5.00;99.90;;;;;;5040037;28;20536;-61
2022/03/04 09:09:06;;;;;;;30.90;17.13;;;5.10;99.90;;;;;;5042103;28;20037;-60
2022/03/04 09:11:32;;;;;;;31.23;18.23;;;5.10;99.90;;;;;;5039442;28;20111;-61
2022/03/04 09:13:57;;;;;;;28.55;17.08;;;5.20;99.90;;;;;;5036314;28;20024;-61
2022/03/04 09:16:23;;;;;;;31.50;17.95;;;5.30;99.90;;;;;;5030897;28;20030;-61
2022/03/04 09:18:48;;;;;;;30.27;17.88;;;5.30;99.90;;;;;;5034622;28;20029;-61
2022/03/04 09:21:14;;;;;;;28.83;17.67;;;;;;;;;;5036202;28;20029;-61
2022/03/04 09:23:40;;;;;;;32.55;18.65;;;;;;;;;;5037365;28;20057;-61
2022/03/04 09:26:07;;;;;;;27.98;18.20;;;;;;;;;;5031623;28;20056;-61
2022/03/04 09:28:33;;;;;;;30.58;18.50;;;;;;;;;;5032648;28;20029;-61
2022/03/04 09:30:59;;;;;;;28.65;17.95;;;;;;;;;;5034000;28;20088;-61
2022/03/04 09:33:25;;;;;;;34.95;18.52;;;;;;;;;;5038697;28;20037;-61
2022/03/04 09:35:51;;;;;;;32.38;18.60;;;;;;;;;;5032468;28;20028;-61
2022/03/04 09:38:17;;;;;;;33.53;19.27;;;;;;;;;;5038884;28;20036;-61
2022/03/04 09:40:43;;;;;;;30.90;19.67;;;;;;;;;;5039500;28;20025;-61
2022/03/04 09:43:09;;;;;;;34.28;20.08;;;;;;;;;;5036495;28;20115;-61
2022/03/04 09:45:35;;;;;;;33.35;19.75;;;;;;;;;;5038092;28;20107;-61
2022/03/04 09:48:03;;;;;;;30.73;19.77;;;;;;;;;;5033989;28;20024;-61
2022/03/04 09:50:30;;;;;;;31.55;19.83;;;;;;;;;;5032345;28;20112;-61
2022/03/04 09:52:56;;;;;;;30.02;19.55;;;;;;;;;;5045846;28;20013;-61
2022/03/04 09:55:22;;;;;;;32.28;20.08;;;;;;;;;;5035210;28;20488;-62
2022/03/04 09:57:49;;;;;;;31.83;19.73;;;;;;;;;;5037076;28;20173;-62
2022/03/04 10:00:15;;;;;;;31.58;20.42;;;;;;;;;;5035534;28;20033;-61
2022/03/04 10:02:41;;;;;;;30.23;19.60;;;;;;;;;;5037909;28;20116;-62
2022/03/04 10:05:08;;;;;;;32.97;19.48;;;;;;;;;;5035593;28;20113;-62
2022/03/04 10:07:53;;;;;;;33.28;21.27;;;;;;;;;;5033108;28;20520;-61
2022/03/04 10:10:22;;;;;;;29.75;19.48;;;;;;;;;;5028826;28;20037;-62
2022/03/04 10:12:49;;;;;;;32.28;20.52;;;6.50;99.90;;;;;;5032356;28;20030;-62
2022/03/04 10:15:15;;;;;;;31.35;20.60;;;6.50;99.90;;;;;;5035689;28;20033;-62
2022/03/04 10:17:41;;;;;;;35.95;21.52;;;6.60;99.90;;;;;;5045071;28;20025;-61
2022/03/04 10:20:12;;;;;;;33.00;21.70;;;6.60;99.90;;;;;;5034916;28;20036;-61
2022/03/04 10:22:45;;;;;;;33.20;21.70;;;6.60;99.90;;;;;;5031177;28;20033;-62
2022/03/04 10:25:21;;;;;;;23.83;15.70;;;6.50;99.90;;;;;;5031122;28;20462;-62
2022/03/04 10:27:47;;;;;;;35.70;20.85;;;6.60;99.90;;;;;;5036942;28;20495;-62
2022/03/04 10:30:15;;;;;;;29.45;19.90;;;6.60;99.90;;;;;;5034998;28;20579;-61
2022/03/04 10:32:41;;;;;;;33.47;20.80;;;6.70;99.90;;;;;;5035730;28;20025;-61
2022/03/04 10:35:09;;;;;;;30.92;19.30;;;6.70;99.90;;;;;;5033593;28;20044;-61
2022/03/04 10:37:57;;;;;;;31.13;19.55;;;6.80;99.90;;;;;;5037656;28;20105;-61
2022/03/04 10:40:23;;;;;;;30.88;19.23;;;6.80;99.90;;;;;;5033384;28;20025;-62
2022/03/04 10:43:04;;;;;;;31.05;20.23;;;6.90;99.90;;;;;;5028657;28;20030;-61
2022/03/04 10:45:36;;;;;;;28.70;19.13;;;6.90;99.90;;;;;;5038336;28;20029;-61
2022/03/04 10:48:13;;;;;;;32.20;20.13;;;6.90;99.90;;;;;;5032719;28;20086;-61
2022/03/04 10:50:42;;;;;;;30.90;18.98;;;6.80;99.90;;;;;;5037257;28;20033;-61
2022/03/04 10:53:11;;;;;;;30.55;19.05;;;7.00;99.90;;;;;;5035477;28;20033;-61
2022/03/04 10:55:42;;;;;;;31.33;20.42;;;7.10;99.90;;;;;;5029731;28;20024;-61
2022/03/04 10:58:17;;;;;;;31.05;20.33;;;7.20;99.90;;;;;;5031880;28;20249;-61
2022/03/04 11:00:57;;;;;;;36.45;20.65;;;7.20;99.90;;;;;;5028503;28;20037;-61
2022/03/04 11:03:25;;;;;;;30.90;19.70;;;7.20;99.90;;;;;;5046230;28;20244;-61
2022/03/04 11:05:53;;;;;;;37.47;20.50;;;7.20;99.90;;;;;;5039949;28;20106;-61
2022/03/04 11:08:20;;;;;;;29.25;19.92;;;7.30;99.90;;;;;;5045052;28;20040;-61
2022/03/04 11:10:47;;;;;;;32.28;20.05;;;7.30;99.90;;;;;;5032837;28;20460;-60
2022/03/04 11:13:13;;;;;;;33.72;20.02;;;7.40;99.90;;;;;;5036360;28;20032;-62
2022/03/04 11:15:40;;;;;;;32.42;19.85;;;7.40;99.90;;;;;;5031286;28;20037;-62
2022/03/04 11:18:08;;;;;;;33.15;20.95;;;7.30;99.90;;;;;;5038841;28;20025;-61
2022/03/04 11:20:35;;;;;;;30.40;19.85;;;7.30;99.90;;;;;;5028382;28;20701;-61
2022/03/04 11:23:01;;;;;;;31.48;19.65;;;7.40;99.90;;;;;;5036804;28;20047;-62
2022/03/04 11:25:41;;;;;;;48.15;28.50;;;7.40;99.90;;;;;;5034194;28;20032;-62
2022/03/04 11:28:14;;;;;;;32.10;20.13;;;7.40;99.90;;;;;;5028054;28;20555;-62
2022/03/04 11:30:51;;;;;;;33.28;20.75;;;7.40;99.90;;;;;;5035698;28;20033;-61
2022/03/04 11:33:17;;;;;;;30.70;19.15;;;7.60;99.90;;;;;;5041352;28;20143;-62
2022/03/04 11:35:42;;;;;;;29.85;19.80;;;7.60;99.90;;;;;;5040702;28;20036;-62
2022/03/04 11:38:09;;;;;;;30.42;19.27;;;7.60;99.90;;;;;;5027399;28;20025;-62
2022/03/04 11:40:38;;;;;;;30.60;19.20;;;7.70;99.90;;;;;;5031526;28;20064;-62
2022/03/04 11:43:06;;;;;;;30.90;18.95;;;7.60;99.90;;;;;;5033398;28;20051;-61
2022/03/04 11:45:33;;;;;;;25.75;15.75;;;7.60;99.90;;;;;;5038192;28;20499;-62
2022/03/04 11:48:08;;;;;;;28.15;18.10;;;7.70;99.90;;;;;;5030874;28;20087;-62
2022/03/04 11:50:47;;;;;;;27.13;16.38;;;7.70;99.90;;;;;;5035564;28;20047;-62
2022/03/04 11:53:20;;;;;;;28.67;16.73;;;7.70;99.90;;;;;;5033475;28;20829;-62
2022/03/04 11:56:11;;;;;;;27.42;16.95;;;7.80;99.90;;;;;;5037044;28;20071;-62
2022/03/04 11:58:58;;;;;;;26.50;16.88;;;7.90;99.90;;;;;;5031212;28;20773;-62
2022/03/04 12:01:27;;;;;;;34.80;19.15;;;8.00;99.90;;;;;;5032566;28;20024;-61
2022/03/04 12:04:15;;;;;;;26.10;16.65;;;8.00;99.90;;;;;;5043999;28;20221;-62
2022/03/04 12:06:43;;;;;;;26.73;16.35;;;8.20;99.90;;;;;;5030149;28;20033;-62
2022/03/04 12:09:31;;;;;;;30.95;16.63;;;8.20;99.90;;;;;;5043871;28;20028;-61
2022/03/04 12:12:13;;;;;;;27.55;17.50;;;8.40;99.90;;;;;;5034472;28;20116;-62
2022/03/04 12:14:46;;;;;;;27.23;15.75;;;8.50;99.90;;;;;;5053669;28;20034;-62
2022/03/04 12:17:12;;;;;;;27.05;16.80;;;8.60;99.90;;;;;;5038154;28;20025;-61
2022/03/04 12:19:37;;;;;;;26.60;17.95;;;8.80;99.90;;;;;;5031057;28;20021;-62
2022/03/04 12:22:04;;;;;;;24.80;17.30;;;8.70;99.90;;;;;;5034601;28;20606;-62
2022/03/04 12:24:35;;;;;;;26.38;16.35;;;8.70;99.90;;;;;;5037740;28;20529;-62
2022/03/04 12:27:02;;;;;;;27.63;17.95;;;8.60;99.90;;;;;;5032757;28;20028;-62
2022/03/04 12:29:45;;;;;;;27.77;17.17;;;8.50;99.90;;;;;;5040217;28;20068;-62
2022/03/04 12:32:13;;;;;;;24.85;15.55;;;8.50;99.90;;;;;;5028138;28;20065;-62
2022/03/04 12:34:52;;;;;;;25.33;15.98;;;8.50;99.90;;;;;;5032051;28;20140;-62
2022/03/04 12:37:17;;;;;;;27.00;16.05;;;8.50;99.90;;;;;;5039943;28;20025;-62
2022/03/04 12:39:50;;;;;;;23.77;14.98;;;8.50;99.90;;;;;;5040738;28;20406;-62
2022/03/04 12:42:19;;;;;;;24.02;15.85;;;8.60;99.90;;;;;;5034617;28;20025;-62
2022/03/04 12:44:45;;;;;;;27.30;16.17;;;8.70;99.90;;;;;;5045940;28;20583;-62
2022/03/04 12:47:12;;;;;;;25.30;15.75;;;8.70;99.90;;;;;;5034385;28;20078;-62